Time;durP1;ratioP1;P1;durP2;ratioP2;P2;SDS_P1;SDS_P2;PMS_P1;PMS_P2;Temp;Humidity;BMP_temperature;BMP_pressure;BME280_temperature;BME280_humidity;BME280_pressure;Samples;Min_cycle;Max_cycle;Signal;HPM_P1;HPM_P2
2023/09/17 00:02:06;;;;;;;4.80;3.67;;;;;;;18.46;100.00;97084.28;5002741;28;20125;-58
2023/09/17 00:04:34;;;;;;;6.78;4.07;;;;;;;18.44;100.00;97086.53;4992584;28;20069;-60
2023/09/17 00:07:00;;;;;;;5.43;3.92;;;;;;;18.41;100.00;97092.63;4998101;28;20540;-60
2023/09/17 00:09:27;;;;;;;6.03;3.83;;;;;;;18.34;100.00;97095.81;4998917;28;20057;-60
2023/09/17 00:11:54;;;;;;;6.10;3.95;;;;;;;18.35;100.00;97091.94;4996046;28;20041;-58
2023/09/17 00:14:21;;;;;;;6.00;3.90;;;;;;;18.38;100.00;97087.75;5001064;28;20064;-59
2023/09/17 00:16:48;;;;;;;6.20;3.97;;;;;;;18.42;100.00;97086.03;5002096;28;20403;-60
2023/09/17 00:19:16;;;;;;;6.57;3.92;;;;;;;18.47;100.00;97085.94;4977916;28;20049;-60
2023/09/17 00:21:43;;;;;;;5.53;4.10;;;;;;;18.51;100.00;97084.19;4995327;28;20026;-59
2023/09/17 00:24:09;;;;;;;7.90;4.03;;;;;;;18.48;100.00;97083.97;4996550;28;20133;-60
2023/09/17 00:26:36;;;;;;;6.70;4.07;;;;;;;18.40;100.00;97088.28;4997460;28;20051;-60
2023/09/17 00:29:03;;;;;;;5.97;4.20;;;;;;;18.35;100.00;97093.88;4996801;28;20050;-59
2023/09/17 00:31:30;;;;;;;6.03;4.07;;;;;;;18.26;100.00;97094.63;4982019;28;20052;-60
2023/09/17 00:33:57;;;;;;;7.18;4.25;;;;;;;18.19;100.00;97094.22;5001297;28;20041;-59
2023/09/17 00:36:23;;;;;;;7.15;4.00;;;;;;;18.32;100.00;97093.38;4996610;28;20053;-60
2023/09/17 00:38:51;;;;;;;5.18;3.90;;;;;;;18.38;100.00;97096.81;5007380;28;20141;-60
2023/09/17 00:41:17;;;;;;;5.93;4.00;;;;;;;18.33;100.00;97097.72;4998606;28;20042;-60
2023/09/17 00:43:45;;;;;;;7.05;3.63;;;;;;;18.25;100.00;97106.72;4997120;28;20034;-58
2023/09/17 00:46:13;;;;;;;6.32;3.85;;;;;;;17.85;100.00;97103.72;4969613;28;20539;-58
2023/09/17 00:48:42;;;;;;;5.90;4.15;;;;;;;17.59;100.00;97101.50;5000343;28;20057;-60
2023/09/17 00:51:09;;;;;;;6.63;4.30;;;;;;;17.51;100.00;97097.56;4985086;28;20030;-59
2023/09/17 00:53:36;;;;;;;7.00;4.45;;;;;;;17.44;100.00;97105.34;5001671;28;20045;-60
2023/09/17 00:56:03;;;;;;;5.85;3.88;;;;;;;17.42;100.00;97106.47;5001159;28;20053;-59
2023/09/17 00:58:33;;;;;;;7.30;4.22;;;;;;;17.32;100.00;97100.38;4981336;28;20046;-59
2023/09/17 01:01:00;;;;;;;7.50;3.70;;;;;;;17.08;100.00;97104.09;4978051;28;20192;-59
2023/09/17 01:03:27;;;;;;;7.13;3.97;;;;;;;17.06;100.00;97098.91;5001629;28;20037;-58
2023/09/17 01:05:56;;;;;;;6.28;4.28;;;;;;;17.03;100.00;97102.25;4980211;28;20525;-59
2023/09/17 01:08:24;;;;;;;6.07;3.85;;;;;;;17.08;100.00;97102.19;4981386;28;20046;-59
2023/09/17 01:10:55;;;;;;;6.45;4.20;;;;;;;17.00;100.00;97105.56;4995853;28;20092;-60
2023/09/17 01:13:23;;;;;;;8.77;4.63;;;;;;;17.07;100.00;97110.69;4980566;28;20053;-59
2023/09/17 01:15:53;;;;;;;6.10;4.40;;;;;;;17.17;100.00;97105.00;4997071;28;20540;-61
2023/09/17 01:18:21;;;;;;;7.13;4.07;;;;;;;17.21;100.00;97106.03;4998178;28;20516;-59
2023/09/17 01:21:16;;;;;;;6.13;4.40;;;;;;;17.36;100.00;97109.63;4997038;28;20038;-60
2023/09/17 01:24:20;;;;;;;6.10;4.18;;;;;;;17.39;100.00;97103.50;5005324;28;20117;-59
2023/09/17 01:26:59;;;;;;;6.53;4.63;;;;;;;17.32;100.00;97095.72;4999525;28;20034;-59
2023/09/17 01:29:26;;;;;;;6.50;4.10;;;;;;;17.22;100.00;97095.91;5001418;28;20525;-60
2023/09/17 01:31:55;;;;;;;6.47;4.30;;;;;;;17.24;100.00;97099.97;5003277;28;20069;-60
2023/09/17 01:34:22;;;;;;;6.85;4.25;;;;;;;17.25;100.00;97096.09;5000339;28;20508;-60
2023/09/17 01:36:57;;;;;;;5.85;4.18;;;;;;;17.26;100.00;97097.75;5002412;28;20038;-59
2023/09/17 01:39:27;;;;;;;7.70;4.60;;;;;;;17.20;100.00;97104.41;4984678;28;20041;-60
2023/09/17 01:41:55;;;;;;;7.60;4.47;;;;;;;17.22;100.00;97110.41;4995789;28;20046;-59
2023/09/17 01:44:24;;;;;;;6.32;4.40;;;;;;;17.21;100.00;97113.44;4998259;28;20042;-59
2023/09/17 01:46:51;;;;;;;6.57;4.35;;;;;;;17.22;100.00;97112.34;5000732;28;20049;-59
2023/09/17 01:49:18;;;;;;;5.68;3.92;;;;;;;17.28;100.00;97111.94;4987216;28;20084;-59
2023/09/17 01:51:46;;;;;;;5.88;4.15;;;;;;;17.33;100.00;97124.72;5000688;28;20034;-59
2023/09/17 01:54:14;;;;;;;5.97;4.30;;;;;;;17.35;100.00;97125.22;4999825;28;20041;-60
2023/09/17 01:56:42;;;;;;;5.88;3.95;;;;;;;17.40;100.00;97121.56;4999170;28;20038;-59
2023/09/17 01:59:08;;;;;;;6.03;4.03;;;;;;;17.39;100.00;97122.66;5001828;28;20053;-59
2023/09/17 02:01:35;;;;;;;6.20;4.18;;;;;;;17.41;100.00;97117.72;4989133;28;20045;-58
2023/09/17 02:04:02;;;;;;;6.00;4.20;;;;;;;17.48;100.00;97122.78;4999382;28;20068;-59
2023/09/17 02:06:29;;;;;;;8.07;4.20;;;;;;;17.40;100.00;97121.56;4998324;28;20421;-59
2023/09/17 02:08:57;;;;;;;6.20;4.13;;;;;;;17.27;100.00;97115.78;5000600;28;20046;-59
2023/09/17 02:11:24;;;;;;;5.57;4.10;;;;;;;17.21;100.00;97114.25;4999769;28;20056;-59
2023/09/17 02:13:50;;;;;;;6.15;3.97;;;;;;;17.02;100.00;97117.84;5000726;28;20136;-60
2023/09/17 02:16:20;;;;;;;5.78;4.15;;;;;;;16.94;100.00;97114.97;5002095;28;20128;-60
2023/09/17 02:18:47;;;;;;;6.63;4.63;;;;;;;16.91;100.00;97116.38;4993355;28;20048;-60
2023/09/17 02:21:14;;;;;;;6.22;4.38;;;;;;;17.02;100.00;97117.00;4995567;28;20584;-60
2023/09/17 02:23:40;;;;;;;5.88;4.07;;;;;;;17.11;100.00;97115.25;4995145;28;20042;-60
2023/09/17 02:26:08;;;;;;;6.28;4.35;;;;;;;17.07;100.00;97116.97;5001082;28;20041;-59
2023/09/17 02:28:34;;;;;;;5.75;4.13;;;;;;;16.96;100.00;97119.06;4995349;28;20038;-59
2023/09/17 02:31:02;;;;;;;7.07;3.90;;;;;;;16.95;100.00;97120.13;5004330;28;20045;-58
2023/09/17 02:33:31;;;;;;;6.35;4.40;;;;;;;16.94;100.00;97126.72;4993030;28;20148;-60
2023/09/17 02:35:57;;;;;;;6.78;4.10;;;;;;;16.97;100.00;97120.66;4990783;28;20056;-60
2023/09/17 02:38:25;;;;;;;5.32;4.00;;;;;;;17.00;100.00;97117.31;4995496;28;20642;-59
2023/09/17 02:40:52;;;;;;;7.15;4.10;;;;;;;17.02;100.00;97117.84;4997551;28;20646;-59
2023/09/17 02:43:18;;;;;;;6.55;4.10;;;;;;;17.03;100.00;97113.97;5001823;28;20042;-58
2023/09/17 02:45:45;;;;;;;6.53;4.05;;;;;;;17.08;100.00;97117.78;5004050;28;20049;-59
2023/09/17 02:48:12;;;;;;;5.78;4.20;;;;;;;17.10;100.00;97126.50;4997048;28;20049;-60
2023/09/17 02:50:41;;;;;;;6.25;3.67;;;;;;;17.11;100.00;97126.22;4999150;28;20100;-59
2023/09/17 02:53:08;;;;;;;5.53;4.05;;;;;;;16.88;100.00;97127.94;4994970;28;20546;-59
2023/09/17 02:55:34;;;;;;;6.18;4.05;;;;;;;16.67;100.00;97124.72;4999249;28;20100;-60
2023/09/17 02:58:04;;;;;;;7.07;3.97;;;;;;;16.61;100.00;97133.00;5002781;28;20528;-59
2023/09/17 03:00:33;;;;;;;6.40;4.60;;;;;;;16.50;100.00;97135.09;4999752;28;20045;-60
2023/09/17 03:03:00;;;;;;;5.63;4.03;;;;;;;16.47;100.00;97141.13;4998568;28;20050;-59
2023/09/17 03:05:27;;;;;;;8.43;4.45;;;;;;;16.49;100.00;97144.41;4995998;28;20061;-57
2023/09/17 03:07:54;;;;;;;6.55;4.20;;;;;;;16.52;100.00;97143.78;4997683;28;20046;-56
2023/09/17 03:10:22;;;;;;;7.25;4.30;;;;;;;16.54;100.00;97134.50;4995199;28;20050;-59
2023/09/17 03:12:49;;;;;;;6.32;4.40;;;;;;;16.64;100.00;97129.69;4997311;28;20129;-59
2023/09/17 03:15:16;;;;;;;6.13;4.53;;;;;;;16.77;100.00;97128.09;4997055;28;20049;-58
2023/09/17 03:17:43;;;;;;;6.50;4.53;;;;;;;16.77;100.00;97133.56;4994250;28;20046;-58
2023/09/17 03:20:33;;;;;;;7.15;4.68;;;;;;;16.72;100.00;97136.38;4995364;28;20049;-59
2023/09/17 03:23:04;;;;;;;6.75;4.20;;;;;;;16.70;100.00;97133.13;4991504;28;20081;-58
2023/09/17 03:25:33;;;;;;;6.93;4.35;;;;;;;16.72;100.00;97136.38;4991624;28;20054;-59
2023/09/17 03:28:00;;;;;;;5.50;4.07;;;;;;;16.75;100.00;97126.78;4990153;28;20050;-57
2023/09/17 03:30:28;;;;;;;6.15;4.40;;;;;;;16.78;100.00;97131.66;4998749;28;20437;-57
2023/09/17 03:32:57;;;;;;;6.00;4.25;;;;;;;16.55;100.00;97133.38;4999350;28;20041;-59
2023/09/17 03:35:39;;;;;;;6.68;4.40;;;;;;;16.47;100.00;97126.69;4998930;28;20050;-58
2023/09/17 03:38:06;;;;;;;7.05;4.38;;;;;;;16.54;100.00;97126.31;4995698;28;20061;-58
2023/09/17 03:40:33;;;;;;;5.38;3.85;;;;;;;16.32;100.00;97135.88;4999404;28;20055;-60
2023/09/17 03:43:01;;;;;;;8.63;4.10;;;;;;;16.30;100.00;97127.19;4995244;28;20101;-59
2023/09/17 03:45:28;;;;;;;6.90;4.43;;;;;;;16.31;100.00;97128.81;4998264;28;20743;-59
2023/09/17 03:47:54;;;;;;;7.72;4.75;;;;;;;16.38;100.00;97127.34;5002648;28;20042;-59
2023/09/17 03:50:21;;;;;;;6.53;4.35;;;;;;;16.45;100.00;97120.69;4992753;28;20056;-59
2023/09/17 03:52:52;;;;;;;6.00;4.28;;;;;;;16.48;100.00;97120.09;5001842;28;20034;-59
2023/09/17 03:55:21;;;;;;;7.45;4.20;;;;;;;16.38;100.00;97121.06;5000902;28;20069;-58
2023/09/17 03:57:47;;;;;;;6.63;4.57;;;;;;;16.40;100.00;97118.03;5000972;28;20046;-59
2023/09/17 04:00:15;;;;;;;7.63;4.53;;;;;;;16.34;100.00;97129.03;5000417;28;20054;-58
2023/09/17 04:02:44;;;;;;;6.38;4.35;;;;;;;16.34;100.00;97128.22;4998683;28;20050;-59
2023/09/17 04:05:13;;;;;;;5.72;3.80;;;;;;;16.40;100.00;97123.50;5000486;28;20056;-59
2023/09/17 04:07:42;;;;;;;5.95;4.00;;;;;;;16.43;100.00;97120.97;5001939;28;20060;-59
2023/09/17 04:10:09;;;;;;;6.95;4.30;;;;;;;16.44;100.00;97114.41;4991654;28;20049;-58
2023/09/17 04:12:37;;;;;;;5.95;4.10;;;;;;;16.45;100.00;97121.50;4999945;28;20125;-58
2023/09/17 04:15:12;;;;;;;5.32;3.80;;;;;;;16.41;100.00;97114.19;4963449;28;20054;-60
2023/09/17 04:17:42;;;;;;;5.55;3.97;;;;;;;16.14;100.00;97121.94;4991842;28;20460;-59
2023/09/17 04:20:13;;;;;;;7.60;4.43;;;;;;;16.02;100.00;97124.28;4994149;28;20046;-59
2023/09/17 04:22:42;;;;;;;7.50;4.72;;;;;;;16.06;100.00;97126.16;4999795;28;20034;-59
2023/09/17 04:25:10;;;;;;;8.20;5.20;;;;;;;16.11;100.00;97123.34;4996020;28;20046;-59
2023/09/17 04:27:44;;;;;;;6.18;4.45;;;;;;;16.03;100.00;97128.66;4990729;28;20168;-59
2023/09/17 04:30:15;;;;;;;6.68;5.00;;;;;;;15.88;100.00;97135.91;4998179;28;20134;-58
2023/09/17 04:32:43;;;;;;;5.50;4.07;;;;;;;16.04;100.00;97127.53;4997562;28;20069;-59
2023/09/17 04:35:15;;;;;;;6.65;4.45;;;;;;;16.12;100.00;97135.09;4998733;28;20042;-58
2023/09/17 04:37:43;;;;;;;7.13;4.50;;;;;;;16.15;100.00;97133.69;4999241;28;20081;-58
2023/09/17 04:40:11;;;;;;;6.40;4.40;;;;;;;16.23;100.00;97133.84;4994112;28;20668;-60
2023/09/17 04:42:43;;;;;;;5.97;4.60;;;;;;;16.27;100.00;97139.53;4990789;28;20054;-59
2023/09/17 04:45:39;;;;;;;6.78;4.55;;;;;;;16.13;100.00;97142.16;5001335;28;20052;-58
2023/09/17 04:48:17;;;;;;;5.30;4.05;;;;;;;16.16;100.00;97143.50;5000312;28;20042;-59
2023/09/17 04:50:45;;;;;;;6.43;3.92;;;;;;;16.21;100.00;97144.25;4993422;28;20042;-57
2023/09/17 04:53:14;;;;;;;6.17;4.63;;;;;;;16.33;100.00;97145.72;4995069;28;20529;-58
2023/09/17 04:55:44;;;;;;;6.63;4.55;;;;;;;16.19;100.00;97153.84;4990828;28;20047;-59
2023/09/17 04:58:14;;;;;;;6.70;4.65;;;;;;;16.14;100.00;97149.25;4977684;28;20057;-57
2023/09/17 05:00:41;;;;;;;6.20;4.30;;;;;;;16.17;100.00;97151.41;4982692;28;20141;-59
2023/09/17 05:03:08;;;;;;;7.75;5.05;;;;;;;16.02;100.00;97148.84;4981258;28;20048;-59
2023/09/17 05:05:34;;;;;;;6.82;4.45;;;;;;;15.97;100.00;97150.56;4998105;28;20111;-59
2023/09/17 05:08:02;;;;;;;7.00;3.80;;;;;;;15.90;100.00;97150.09;4995343;28;20049;-58
2023/09/17 05:10:29;;;;;;;6.43;4.53;;;;;;;15.91;100.00;97150.88;4993483;28;20061;-59
2023/09/17 05:12:56;;;;;;;7.57;5.40;;;;;;;15.77;100.00;97165.25;4991195;28;20127;-59
2023/09/17 05:15:23;;;;;;;6.53;4.00;;;;;;;15.72;100.00;97168.03;4996255;28;20060;-59
2023/09/17 05:17:51;;;;;;;6.95;4.80;;;;;;;15.70;100.00;97165.59;4999306;28;20049;-59
2023/09/17 05:20:21;;;;;;;6.63;4.57;;;;;;;15.79;100.00;97170.41;4975138;28;20582;-57
2023/09/17 05:22:48;;;;;;;7.47;4.88;;;;;;;15.86;100.00;97168.16;4989353;28;20042;-59
2023/09/17 05:25:15;;;;;;;6.60;4.20;;;;;;;15.95;100.00;97171.88;4997949;28;20584;-58
2023/09/17 05:27:43;;;;;;;6.97;4.90;;;;;;;16.06;100.00;97169.00;4994854;28;20080;-59
2023/09/17 05:30:10;;;;;;;5.82;4.38;;;;;;;16.17;100.00;97177.88;4998583;28;20545;-59
2023/09/17 05:32:37;;;;;;;6.32;4.63;;;;;;;16.26;100.00;97176.16;4997681;28;20116;-59
2023/09/17 05:35:04;;;;;;;7.90;4.70;;;;;;;16.36;100.00;97176.00;4996917;28;20048;-58
2023/09/17 05:37:31;;;;;;;6.18;4.38;;;;;;;16.47;100.00;97178.59;4997962;28;20053;-58
2023/09/17 05:40:00;;;;;;;6.22;4.53;;;;;;;16.46;100.00;97175.03;4989867;28;20141;-59
2023/09/17 05:42:28;;;;;;;6.65;5.03;;;;;;;16.46;100.00;97168.75;4987238;28;20038;-58
2023/09/17 05:44:54;;;;;;;6.50;4.15;;;;;;;16.58;100.00;97182.00;4997664;28;20053;-56
2023/09/17 05:47:23;;;;;;;7.63;4.47;;;;;;;16.76;100.00;97180.34;4993926;28;20039;-58
2023/09/17 05:49:50;;;;;;;6.43;4.18;;;;;;;16.94;100.00;97189.63;4992761;28;20121;-59
2023/09/17 05:52:18;;;;;;;7.03;4.30;;;;;;;17.10;100.00;97183.94;4993261;28;20045;-59
2023/09/17 05:54:44;;;;;;;5.95;4.10;;;;;;;17.20;100.00;97191.13;4999786;28;20055;-59
2023/09/17 05:57:11;;;;;;;6.75;4.13;;;;;;;17.25;100.00;97194.59;4995929;28;20042;-59
2023/09/17 05:59:37;;;;;;;5.38;3.80;;;;;;;17.40;100.00;97187.25;4994305;28;20057;-57
2023/09/17 06:02:05;;;;;;;8.65;4.00;;;;;;;17.48;100.00;97181.09;4996645;28;20540;-60
2023/09/17 06:04:32;;;;;;;6.32;3.90;;;;;;;17.62;100.00;97189.28;4994534;28;20045;-59
2023/09/17 06:06:59;;;;;;;6.07;3.78;;;;;;;17.73;100.00;97183.63;5003317;28;20104;-60
2023/09/17 06:09:25;;;;;;;10.85;5.05;;;;;;;17.81;100.00;97186.47;4998366;28;20105;-60
2023/09/17 06:11:52;;;;;;;5.97;3.92;;;;;;;17.90;100.00;97186.56;5000533;28;20656;-60
2023/09/17 06:14:19;;;;;;;6.85;4.15;;;;;;;17.96;100.00;97186.47;4997130;28;20115;-60
2023/09/17 06:16:45;;;;;;;7.57;3.95;;;;;;;18.02;100.00;97180.56;4998619;28;20077;-59
2023/09/17 06:19:24;;;;;;;6.75;4.47;;;;;;;18.01;100.00;97178.13;4996125;28;20621;-60
2023/09/17 06:21:51;;;;;;;5.40;4.15;;;;;;;18.01;100.00;97178.97;4994039;28;20093;-60
2023/09/17 06:24:18;;;;;;;8.15;4.07;;;;;;;18.05;100.00;97185.44;4989342;28;20042;-60
2023/09/17 06:26:45;;;;;;;6.13;3.72;;;;;;;18.19;100.00;97192.88;4994441;28;20062;-60
2023/09/17 06:29:11;;;;;;;5.13;3.70;;;;;;;18.33;100.00;97184.63;4990800;28;20777;-60
2023/09/17 06:31:40;;;;;;;7.70;4.07;;;;;;;18.40;100.00;97184.22;4991865;28;20046;-60
2023/09/17 06:34:07;;;;;;;6.10;4.15;;;;;;;18.50;100.00;97185.91;4998619;28;20046;-60
2023/09/17 06:36:34;;;;;;;5.93;3.78;;;;;;;18.48;100.00;97182.66;4992942;28;20168;-60
2023/09/17 06:39:01;;;;;;;5.40;3.67;;;;;;;18.50;100.00;97186.72;5002568;28;20626;-59
2023/09/17 06:41:27;;;;;;;5.45;3.58;;;;;;;18.58;100.00;97182.44;4996155;28;20045;-60
2023/09/17 06:43:54;;;;;;;7.65;3.75;;;;;;;18.67;100.00;97185.25;4993779;28;20037;-60
2023/09/17 06:46:23;;;;;;;5.30;3.30;;;;;;;18.80;98.88;97181.63;5001742;28;20049;-60
2023/09/17 06:48:51;;;;;;;5.40;3.80;;;;;;;18.87;98.73;97177.66;4998872;28;20064;-58
2023/09/17 06:51:17;;;;;;;5.43;3.47;;;;;;;18.92;99.03;97181.09;5004023;28;20037;-60
2023/09/17 06:53:44;;;;;;;5.28;3.20;;;;;;;18.93;98.76;97184.63;5002793;28;20053;-60
2023/09/17 06:56:13;;;;;;;5.20;3.65;;;;;;;18.94;99.06;97186.28;4991798;28;20101;-59
2023/09/17 06:58:39;;;;;;;6.90;3.65;;;;;;;19.01;99.80;97180.34;4994687;28;20089;-60
2023/09/17 07:01:07;;;;;;;7.20;3.70;;;;;;;19.13;99.37;97182.56;5002704;28;20382;-60
2023/09/17 07:03:33;;;;;;;7.38;3.30;;;;;;;19.29;98.03;97181.03;5000308;28;20207;-60
2023/09/17 07:06:00;;;;;;;6.43;3.45;;;;;;;19.45;96.37;97186.13;4992103;28;20056;-58
2023/09/17 07:08:27;;;;;;;5.22;3.10;;;;;;;19.59;94.65;97184.09;4995134;28;20042;-60
2023/09/17 07:10:53;;;;;;;4.78;3.20;;;;;;;19.70;93.11;97181.06;4996352;28;20050;-59
2023/09/17 07:13:20;;;;;;;5.90;3.28;;;;;;;19.84;91.20;97179.03;4997923;28;20037;-60
2023/09/17 07:15:47;;;;;;;4.93;2.47;;;;;;;20.01;90.89;97169.22;4964261;28;20065;-60
2023/09/17 07:18:14;;;;;;;4.93;2.67;;;;;;;20.21;88.73;97167.03;4965492;28;20075;-59
2023/09/17 07:20:41;;;;;;;5.00;2.75;;;;;;;20.42;87.22;97182.91;4975940;28;20380;-58
2023/09/17 07:23:08;;;;;;;5.05;2.70;;;;;;;20.63;85.86;97188.56;4997796;28;20075;-59
2023/09/17 07:25:34;;;;;;;7.60;3.10;;;;;;;20.76;83.04;97187.63;4999267;28;20116;-59
2023/09/17 07:28:04;;;;;;;4.78;2.65;;;;;;;20.90;82.78;97190.22;4996910;28;20046;-59
2023/09/17 07:30:34;;;;;;;7.47;2.40;;;;;;;21.11;80.69;97191.53;4992991;28;20049;-59
2023/09/17 07:33:04;;;;;;;5.43;2.53;;;;;;;21.18;80.57;97200.91;4994330;28;20041;-59
2023/09/17 07:35:32;;;;;;;5.10;2.80;;;;;;;21.26;80.60;97198.47;4998609;28;20048;-60
2023/09/17 07:37:59;;;;;;;4.35;2.35;;;;;;;21.33;79.53;97195.22;4994316;28;21377;-59
2023/09/17 07:40:27;;;;;;;3.97;2.45;;;;;;;21.48;77.21;97204.88;4993873;28;20128;-60
2023/09/17 07:42:54;;;;;;;4.80;2.30;;;;;;;21.61;76.51;97209.38;4996528;28;20072;-59
2023/09/17 07:45:20;;;;;;;6.20;2.20;;;;;;;21.66;76.59;97209.19;4997345;28;20050;-60
2023/09/17 07:47:47;;;;;;;5.10;2.65;;;;;;;21.69;76.41;97219.56;4994574;28;20416;-58
2023/09/17 07:50:14;;;;;;;5.00;2.58;;;;;;;21.67;75.81;97216.31;5002984;28;20571;-60
2023/09/17 07:52:41;;;;;;;4.68;2.40;;;;;;;21.71;75.43;97208.22;4992610;28;20045;-57
2023/09/17 07:55:08;;;;;;;4.57;2.47;;;;;;;21.78;74.53;97216.00;4997020;28;20053;-59
2023/09/17 07:57:35;;;;;;;5.10;2.50;;;;;;;21.82;74.92;97212.25;4993298;28;20045;-60
2023/09/17 08:00:04;;;;;;;5.78;2.50;;;;;;;21.90;74.55;97207.03;4991751;28;20340;-58
2023/09/17 08:02:38;;;;;;;6.88;2.25;;;;;;;22.00;74.87;97214.13;5003488;28;20045;-60
2023/09/17 08:05:07;;;;;;;5.03;2.40;;;;;;;22.13;74.82;97221.34;4997324;28;20128;-59
2023/09/17 08:07:34;;;;;;;5.72;2.47;;;;;;;22.26;74.61;97211.22;4991463;28;20046;-60
2023/09/17 08:10:03;;;;;;;5.90;2.58;;;;;;;22.34;74.58;97212.31;5001272;28;20513;-59
2023/09/17 08:12:32;;;;;;;6.32;2.83;;;;;;;22.43;73.77;97229.63;4998351;28;20489;-60
2023/09/17 08:15:00;;;;;;;4.45;2.38;;;;;;;22.53;72.86;97222.09;5002263;28;20460;-59
2023/09/17 08:17:27;;;;;;;4.53;2.35;;;;;;;22.59;72.75;97229.06;5000607;28;20073;-60
2023/09/17 08:19:54;;;;;;;4.97;2.30;;;;;;;22.66;72.90;97234.06;4997640;28;20042;-60
2023/09/17 08:22:22;;;;;;;5.38;2.50;;;;;;;22.77;70.84;97234.47;4995692;28;20049;-60
2023/09/17 08:24:48;;;;;;;5.43;2.53;;;;;;;22.88;70.39;97226.59;5002140;28;20401;-60
2023/09/17 08:27:16;;;;;;;5.57;2.53;;;;;;;23.04;71.22;97226.78;5001261;28;20034;-60
2023/09/17 08:29:43;;;;;;;5.85;2.55;;;;;;;23.15;69.47;97230.75;4994041;28;20045;-60
2023/09/17 08:32:11;;;;;;;5.15;2.30;;;;;;;23.21;68.87;97225.78;4998246;28;20052;-60
2023/09/17 08:34:37;;;;;;;6.35;2.22;;;;;;;23.26;68.98;97228.38;4997193;28;20044;-60
2023/09/17 08:37:04;;;;;;;6.55;2.22;;;;;;;23.30;68.43;97228.50;4990521;28;20050;-60
2023/09/17 08:39:31;;;;;;;6.40;2.55;;;;;;;23.37;67.82;97231.53;4987644;28;20138;-60
2023/09/17 08:42:01;;;;;;;6.43;2.95;;;;;;;23.37;67.16;97226.03;4996174;28;20436;-60
2023/09/17 08:44:30;;;;;;;8.73;2.43;;;;;;;23.48;67.13;97232.72;4995063;28;20052;-60
2023/09/17 08:46:59;;;;;;;4.13;2.00;;;;;;;23.57;65.88;97240.09;4993601;28;20444;-59
2023/09/17 08:49:26;;;;;;;7.25;2.92;;;;;;;23.67;66.37;97233.34;4992683;28;20045;-60
2023/09/17 08:51:56;;;;;;;6.57;2.25;;;;;;;23.68;65.85;97223.88;4999384;28;20676;-59
2023/09/17 08:54:33;;;;;;;3.95;1.88;;;;;;;23.67;65.91;97227.81;4996143;28;20037;-60
2023/09/17 08:57:03;;;;;;;5.70;3.05;;;;;;;23.78;66.29;97227.03;4993688;28;20049;-60
2023/09/17 08:59:34;;;;;;;8.55;2.58;;;;;;;23.82;64.49;97224.41;4999890;28;20456;-58
2023/09/17 09:02:07;;;;;;;7.47;2.27;;;;;;;23.93;64.41;97230.28;4998522;28;20042;-58
2023/09/17 09:04:36;;;;;;;6.47;2.25;;;;;;;23.99;63.71;97226.13;4999190;28;20700;-60
2023/09/17 09:07:04;;;;;;;8.15;2.40;;;;;;;24.11;64.09;97230.91;4993840;28;20080;-60
2023/09/17 09:09:32;;;;;;;7.95;2.30;;;;;;;24.18;63.91;97219.25;4997210;28;20517;-59
2023/09/17 09:11:58;;;;;;;6.80;2.53;;;;;;;24.20;63.26;97224.41;4997062;28;20054;-60
2023/09/17 09:14:25;;;;;;;6.95;2.53;;;;;;;24.25;63.04;97215.91;4992260;28;20041;-59
2023/09/17 09:16:52;;;;;;;8.80;2.00;;;;;;;24.31;63.14;97222.00;4998402;28;20112;-60
2023/09/17 09:19:18;;;;;;;8.07;2.65;;;;;;;24.45;62.42;97216.94;4996902;28;20049;-59
2023/09/17 09:21:45;;;;;;;7.03;2.25;;;;;;;24.52;62.66;97222.69;4999408;28;20072;-60
2023/09/17 09:24:11;;;;;;;7.47;2.45;;;;;;;24.57;62.11;97218.06;4989263;28;20095;-60
2023/09/17 09:26:38;;;;;;;6.20;2.58;;;;;;;24.58;61.97;97214.94;4995276;28;20112;-60
2023/09/17 09:29:06;;;;;;;4.50;2.53;;;;;;;24.58;61.23;97216.91;4996472;28;20042;-59
2023/09/17 09:31:34;;;;;;;8.43;2.88;;;;;;;24.58;61.95;97217.69;4997209;28;20038;-60
2023/09/17 09:34:02;;;;;;;4.72;2.17;;;;;;;24.64;61.95;97216.31;4993322;28;20046;-60
2023/09/17 09:36:34;;;;;;;5.57;2.08;;;;;;;24.65;61.66;97212.38;4996722;28;20049;-60
2023/09/17 09:39:01;;;;;;;;;;;;;;;24.69;61.13;97215.25;4998619;28;20046;-60
2023/09/17 09:41:32;;;;;;;8.65;2.40;;;;;;;24.73;61.55;97216.16;5000266;28;19921;-60
2023/09/17 09:44:00;;;;;;;7.00;2.00;;;;;;;24.78;59.75;97213.19;5000052;28;20497;-60
2023/09/17 09:46:28;;;;;;;4.03;1.90;;;;;;;24.80;61.83;97205.31;5003022;28;20049;-59
2023/09/17 09:49:00;;;;;;;5.43;1.83;;;;;;;24.86;61.19;97205.09;4997349;28;20662;-60
2023/09/17 09:51:29;;;;;;;10.20;2.08;;;;;;;24.94;59.67;97204.97;4999673;28;20049;-60
2023/09/17 09:53:56;;;;;;;6.78;2.30;;;;;;;24.96;61.26;97199.06;5003193;28;20050;-60
2023/09/17 09:56:29;;;;;;;6.68;2.40;;;;;;;25.09;59.51;97204.56;5000223;28;20568;-59
2023/09/17 09:58:56;;;;;;;7.35;2.20;;;;;;;25.15;58.29;97190.09;4994854;28;20065;-60
2023/09/17 10:01:23;;;;;;;7.78;2.20;;;;;;;25.24;58.03;97192.69;5004342;28;20048;-60
2023/09/17 10:03:50;;;;;;;7.28;2.03;;;;;;;25.34;57.54;97185.84;4999972;28;20100;-60
2023/09/17 10:06:18;;;;;;;8.88;2.78;;;;;;;25.45;57.37;97180.59;5002707;28;20052;-60
2023/09/17 10:08:46;;;;;;;4.63;2.22;;;;;;;25.64;58.08;97182.69;4995464;28;20080;-60
2023/09/17 10:11:14;;;;;;;6.72;2.15;;;;;;;25.78;57.36;97178.66;4996626;28;20042;-60
2023/09/17 10:13:42;;;;;;;6.82;2.20;;;;;;;25.90;56.56;97180.56;4995901;28;20049;-60
2023/09/17 10:16:09;;;;;;;10.02;2.67;;;;;;;25.74;55.56;97177.78;5001619;28;20037;-59
2023/09/17 10:18:38;;;;;;;8.18;2.28;;;;;;;25.94;56.70;97175.91;4996007;28;20046;-60
2023/09/17 10:21:05;;;;;;;7.70;2.70;;;;;;;26.00;55.16;97179.19;4994601;28;20045;-60
2023/09/17 10:23:33;;;;;;;4.75;1.73;;;;;;;26.06;55.47;97175.00;5001785;28;20046;-60
2023/09/17 10:26:03;;;;;;;6.18;2.05;;;;;;;26.11;56.61;97177.47;4999311;28;20523;-60
2023/09/17 10:28:34;;;;;;;6.65;1.83;;;;;;;26.17;51.79;97169.69;4995693;28;20042;-60
2023/09/17 10:31:01;;;;;;;5.45;2.17;;;;;;;26.32;53.55;97174.41;5003282;28;20057;-60
2023/09/17 10:33:31;;;;;;;7.63;1.67;;;;;;;26.35;51.83;97175.69;5002325;28;20044;-60
2023/09/17 10:36:01;;;;;;;8.25;2.17;;;;;;;26.33;51.52;97178.00;4996976;28;20046;-60
2023/09/17 10:38:31;;;;;;;6.38;1.90;;;;;;;26.38;51.10;97166.63;4997997;28;20104;-60
2023/09/17 10:41:00;;;;;;;5.43;1.42;;;;;;;26.55;49.46;97159.88;4994688;28;20057;-60
2023/09/17 10:43:28;;;;;;;4.63;1.95;;;;;;;26.58;48.99;97164.69;4998501;28;20661;-60
2023/09/17 10:45:56;;;;;;;7.35;1.90;;;;;;;26.62;50.30;97156.44;5001317;28;20049;-59
2023/09/17 10:48:25;;;;;;;5.28;1.80;;;;;;;26.70;49.02;97158.19;5000800;28;20662;-60
2023/09/17 10:50:52;;;;;;;10.70;2.38;;;;;;;26.71;50.24;97150.66;4998982;28;20104;-59
2023/09/17 10:53:19;;;;;;;6.88;1.60;;;;;;;26.67;49.50;97150.59;4998217;28;20049;-59
2023/09/17 10:55:59;;;;;;;5.53;1.73;;;;;;;26.78;49.52;97147.25;4990610;28;20056;-59
2023/09/17 10:58:37;;;;;;;7.15;2.28;;;;;;;26.87;49.36;97137.50;4999304;28;20060;-60
2023/09/17 11:01:06;;;;;;;4.25;1.50;;;;;;;26.93;49.37;97146.34;4994412;28;20044;-60
2023/09/17 11:03:37;;;;;;;4.45;1.70;;;;;;;26.98;48.15;97139.72;5001261;28;20040;-59
2023/09/17 11:06:15;;;;;;;5.35;1.85;;;;;;;27.04;47.72;97143.03;4998279;28;20053;-60
2023/09/17 11:08:45;;;;;;;7.90;1.90;;;;;;;27.14;47.52;97131.28;5002677;28;20046;-60
2023/09/17 11:11:16;;;;;;;5.80;1.90;;;;;;;27.27;48.01;97132.72;4995636;28;20054;-58
2023/09/17 11:13:43;;;;;;;6.03;1.80;;;;;;;27.39;47.20;97131.72;5002341;28;20062;-60
2023/09/17 11:16:13;;;;;;;5.45;1.50;;;;;;;27.57;46.86;97142.38;5003109;28;20116;-60
2023/09/17 11:18:41;;;;;;;4.43;1.63;;;;;;;27.69;46.46;97138.63;4999393;28;20133;-60
2023/09/17 11:21:09;;;;;;;4.90;1.42;;;;;;;27.91;46.17;97134.22;4998140;28;20155;-60
2023/09/17 11:23:45;;;;;;;4.50;1.30;;;;;;;28.06;45.71;97134.44;4999125;28;20042;-60
2023/09/17 11:26:14;;;;;;;6.53;1.95;;;;;;;28.16;45.29;97144.91;4994669;28;20153;-60
2023/09/17 11:28:41;;;;;;;5.82;1.48;;;;;;;28.27;45.63;97136.75;4995750;28;20516;-60
2023/09/17 11:31:14;;;;;;;7.18;1.58;;;;;;;28.16;44.76;97133.78;4997203;28;20451;-60
2023/09/17 11:33:42;;;;;;;8.43;2.40;;;;;;;28.15;44.98;97126.59;4991249;28;20034;-60
2023/09/17 11:36:09;;;;;;;3.55;1.20;;;;;;;27.88;44.40;97134.16;4992631;28;20045;-60